Flight Track Log - Related Links

Times and Time Zones

All times are in EDT time to prevent confusion due to time zone crossing. See the GJS3710 flight status page for this flight to view local times or setup timezone preferences in your user account.

Time Position Orientation Groundspeed Altitude Reporting Facility
EDT Latitude Longitude Course Direction KTS km/h meters Rate Location/Type
Tue 14:51:19 29.5200 -98.4569 129° Southeast 155 286 488  Level Houston Center
Tue 14:52:01 29.4983 -98.4261 129° Southeast 181 335 853 599 Climbing Houston Center
Tue 14:53:12 29.4650 -98.3583 119° Southeast 227 420 1,615 700 Climbing Houston Center
Tue 14:54:09 29.5236 -98.3150 33° Northeast 288 533 2,347 811 Climbing Houston Center
Tue 14:55:16 29.6133 -98.3258 354° North 282 523 3,292 624 Climbing Houston Center
Tue 14:56:18 29.7011 -98.3369 354° North 325 602 3,688 457 Climbing Houston Center
Tue 14:57:20 29.8072 -98.3508 354° North 356 660 4,237 501 Climbing Houston Center
Tue 14:58:22 29.9072 -98.3797 346° North 369 684 4,724 561 Climbing Houston Center
Tue 14:59:24 30.0092 -98.4358 335° Northwest 397 735 5,395 546 Climbing Houston Center
Tue 15:00:26 30.1047 -98.4911 333° Northwest 365 676 5,852 472 Climbing Houston Center
Tue 15:01:28 30.2025 -98.5447 335° Northwest 386 715 6,370 541 Climbing Houston Center
Tue 15:02:31 30.3044 -98.6028 334° Northwest 390 723 6,980 541 Climbing Houston Center
Tue 15:03:33 30.4042 -98.6589 334° Northwest 393 727 7,498 487 Climbing Houston Center
Tue 15:04:35 30.5042 -98.7153 334° Northwest 395 732 7,986 457 Climbing Houston Center
Tue 15:05:37 30.6044 -98.7728 334° Northwest 397 735 8,443 398 Climbing Houston Center
Tue 15:06:39 30.7044 -98.8300 334° Northwest 397 735 8,809 339 Climbing Houston Center
Tue 15:07:41 30.8061 -98.8883 334° Northwest 400 740 9,144 251 Climbing Houston Center
Tue 15:08:43 30.9269 -98.9575 334° Northwest 408 756 9,327 190 Climbing Houston Center
Tue 15:09:46 31.0350 -99.0178 334° Northwest 421 779 9,540 234 Climbing Houston Center
Tue 15:10:48 31.1414 -99.0803 333° Northwest 423 784 9,815 280 Climbing Houston Center
Tue 15:11:50 31.2489 -99.1408 334° Northwest 424 785 10,119 295 Climbing Houston Center
Tue 15:12:52 31.3542 -99.2017 334° Northwest 418 774 10,424 280 Climbing Houston Center
Tue 15:13:15 31.3944 -99.2264 332° Northwest 417 772 10,516 174 Climbing Fort Worth Center
Tue 15:14:16 31.5039 -99.2919 333° Northwest 404 748 10,668 76 Climbing Fort Worth Center
Tue 15:15:15 31.6117 -99.3528 334° Northwest 404 748 10,668  Level Fort Worth Center
Tue 15:16:15 31.7214 -99.4161 334° Northwest 420 777 10,668  Level Fort Worth Center
Tue 15:17:16 31.8289 -99.4769 334° Northwest 427 790 10,668  Level Fort Worth Center
Tue 15:18:15 31.9342 -99.5406 333° Northwest 427 790 10,668  Level Fort Worth Center
Tue 15:19:15 32.0439 -99.6069 333° Northwest 427 790 10,668  Level Fort Worth Center
Tue 15:20:15 32.1533 -99.6708 334° Northwest 427 790 10,668  Level Fort Worth Center
Tue 15:21:15 32.2608 -99.7325 334° Northwest 427 790 10,668  Level Fort Worth Center
Tue 15:22:15 32.3703 -99.7969 334° Northwest 427 790 10,668  Level Fort Worth Center
Tue 15:23:15 32.4694 -99.8486 336° Northwest 427 790 10,668  Level Fort Worth Center
Tue 15:24:15 32.5789 -99.9108 334° Northwest 427 790 10,668  Level Fort Worth Center
Tue 15:25:15 32.6967 -99.9708 337° Northwest 435 806 10,668 76 Level Fort Worth Center
Tue 15:26:16 32.8100 -100.0333 335° Northwest 441 816 10,820 152 Climbing Fort Worth Center
Tue 15:27:15 32.9175 -100.0911 336° Northwest 435 806 10,973 77 Climbing Fort Worth Center
Tue 15:28:15 33.0308 -100.1539 335° Northwest 435 806 10,973  Level Fort Worth Center
Tue 15:29:15 33.1506 -100.2197 335° Northwest 441 816 10,973  Level Fort Worth Center
Tue 15:30:15 33.2619 -100.2803 336° Northwest 441 816 10,973  Level Fort Worth Center
Tue 15:31:15 33.3731 -100.3436 335° Northwest 441 816 10,973  Level Fort Worth Center
Tue 15:32:15 33.4844 -100.4047 335° Northwest 441 816 10,973  Level Fort Worth Center
Tue 15:33:15 33.5975 -100.4683 335° Northwest 441 816 10,973  Level Fort Worth Center
Tue 15:34:15 33.7086 -100.5319 335° Northwest 441 816 10,973  Level Fort Worth Center
Tue 15:35:15 33.8219 -100.5936 336° Northwest 441 816 10,973  Level Fort Worth Center
Tue 15:36:15 33.9331 -100.6578 334° Northwest 441 816 10,973  Level Fort Worth Center
Tue 15:37:15 34.0461 -100.7197 336° Northwest 441 816 10,973  Level Fort Worth Center
Tue 15:39:06 34.2456 -100.8311 335° Northwest 448 830 10,973  Level Albuquerque Center
Tue 15:40:07 34.3578 -100.8947 335° Northwest 448 830 10,973  Level Albuquerque Center
Tue 15:41:09 34.4703 -100.9589 335° Northwest 447 827 10,973  Level Albuquerque Center
Tue 15:42:11 34.5828 -101.0231 335° Northwest 447 827 10,973  Level Albuquerque Center
Tue 15:43:12 34.7181 -101.1014 335° Northwest 449 832 10,973  Level Albuquerque Center
Tue 15:44:14 34.8292 -101.1675 334° Northwest 446 826 10,973  Level Albuquerque Center
Tue 15:45:16 34.9422 -101.2317 335° Northwest 449 832 10,973  Level Albuquerque Center
Tue 15:46:18 35.0544 -101.2964 335° Northwest 449 832 10,973  Level Albuquerque Center
Tue 15:47:19 35.1761 -101.3672 335° Northwest 453 838 10,973  Level Albuquerque Center
Tue 15:48:21 35.2917 -101.4342 335° Northwest 455 843 10,973  Level Albuquerque Center
Tue 15:49:23 35.4053 -101.5003 335° Northwest 452 837 10,973  Level Albuquerque Center
Tue 15:50:24 35.5228 -101.5697 334° Northwest 448 830 10,973  Level Albuquerque Center
Tue 15:51:26 35.6325 -101.6358 334° Northwest 444 822 10,973  Level Albuquerque Center
Tue 15:52:28 35.7439 -101.7008 335° Northwest 445 824 10,973  Level Albuquerque Center
Tue 15:53:30 35.8550 -101.7675 334° Northwest 445 824 10,973  Level Albuquerque Center
Tue 15:54:31 35.9886 -101.8475 334° Northwest 445 824 10,973  Level Albuquerque Center
Tue 15:55:33 36.1003 -101.9139 334° Northwest 445 824 10,973  Level Albuquerque Center
Tue 15:56:35 36.2114 -101.9797 334° Northwest 443 821 10,973  Level Albuquerque Center
Tue 15:57:37 36.3231 -102.0458 335° Northwest 445 824 10,973  Level Albuquerque Center
Tue 15:58:38 36.4339 -102.1131 334° Northwest 444 822 10,973  Level Albuquerque Center
Tue 15:59:40 36.5444 -102.1803 334° Northwest 443 821 10,973  Level Albuquerque Center
Tue 16:00:42 36.6544 -102.2464 334° Northwest 440 814 10,973  Level Albuquerque Center
Tue 16:01:44 36.7856 -102.3267 334° Northwest 440 814 10,973  Level Albuquerque Center
Tue 16:02:46 36.8983 -102.3969 334° Northwest 440 814 10,973  Level Albuquerque Center
Tue 16:03:47 37.0042 -102.4611 334° Northwest 441 816 10,973  Level Albuquerque Center
Tue 16:04:49 37.1142 -102.5286 334° Northwest 438 811 10,973  Level Albuquerque Center
Tue 16:05:51 37.2367 -102.6044 334° Northwest 439 813 10,973  Level Albuquerque Center
Tue 16:06:53 37.3408 -102.6686 334° Northwest 438 811 10,973  Level Albuquerque Center
Tue 16:07:58 37.4622 -102.7428 334° Northwest 437 810 10,973  Level Denver Center
Tue 16:09:00 37.5719 -102.7953 339° North 445 824 10,973 -118 Level Denver Center
Tue 16:10:02 37.7061 -102.8386 346° North 448 830 10,729 -251 Descending Denver Center
Tue 16:11:04 37.8219 -102.8750 346° North 449 832 10,455 -312 Descending Denver Center
Tue 16:12:05 37.9564 -102.9189 346° North 449 832 10,089 -312 Descending Denver Center
Tue 16:13:07 38.0561 -102.9942 329° Northwest 442 819 9,815 -162 Descending Denver Center
Tue 16:14:09 38.1689 -103.0981 324° Northwest 447 827 9,754 -30 Descending Denver Center
Tue 16:15:10 38.2656 -103.1875 324° Northwest 447 827 9,754  Level Denver Center
Tue 16:16:12 38.3800 -103.2931 324° Northwest 454 840 9,754 -15 Level Denver Center
Tue 16:17:13 38.4775 -103.3828 324° Northwest 452 837 9,723 -342 Descending Denver Center
Tue 16:18:15 38.5867 -103.4861 324° Northwest 441 816 9,053 -590 Descending Denver Center
Tue 16:19:17 38.6775 -103.5706 324° Northwest 426 789 8,504 -535 Descending Denver Center
Tue 16:20:18 38.7667 -103.6550 324° Northwest 418 774 7,955 -565 Descending Denver Center
Tue 16:21:20 38.8622 -103.7456 324° Northwest 403 747 7,346 -546 Descending Denver Center
Tue 16:22:22 38.9511 -103.8283 324° Northwest 393 727 6,828 -476 Descending Denver Center
Tue 16:23:23 39.0356 -103.9081 324° Northwest 374 692 6,370 -416 Descending Denver Center
Tue 16:24:25 39.1169 -103.9850 324° Northwest 363 673 5,974 -372 Descending Denver Center
Tue 16:25:26 39.2003 -104.0650 323° Northwest 325 602 5,608 -327 Descending Denver Center
Tue 16:26:28 39.2642 -104.1328 321° Northwest 316 586 5,304 -295 Descending Denver Center
Tue 16:27:30 39.2842 -104.2294 285° West 270 501 4,999 -312 Descending Denver Center
Tue 16:28:31 39.3053 -104.3200 287° West 244 452 4,663 -312 Descending Denver Center
Tue 16:29:33 39.3442 -104.3981 303° West 266 492 4,359 -297 Descending Denver Center
Tue 16:30:34 39.3925 -104.4681 312° West 264 489 4,054 -312 Descending Denver Center
Tue 16:31:36 39.4556 -104.5189 328° Northwest 252 467 3,719 -325 Descending Denver Center
Tue 16:32:38 39.5208 -104.5503 340° North 250 463 3,383 -372 Descending Denver Center
Tue 16:33:39 39.5908 -104.5842 340° North 251 465 2,957 -416 Descending Denver Center
Tue 16:34:41 39.6550 -104.6156 339° North 248 459 2,530 -339 Descending Denver Center
Tue 16:35:43 39.7114 -104.6439 339° North 221 409 2,256 -238 Descending Denver Center
Tue 16:36:44 39.7664 -104.6608 347° North 188 348 2,042 -223 Descending Denver Center
Tue 16:37:46 39.8094 -104.6611 360° North 156 290 1,798 -193 Descending Denver Center
Tue 16:38:47 39.8442 -104.6594 North 125 232 1,646 -150 Descending Denver Center
Tue 16:40:00 39.8500 -104.6667 North  Level FlightAware Approximate
Tue 16:47:00 39.8617 -104.6732 North  Level Estimated
Tue 16:48:00 39.8617 -104.6732 North  Level Estimated

Login

Don't have an account? Register now (free) for customized features, flight alerts, and more!